Time;durP1;ratioP1;P1;durP2;ratioP2;P2;SDS_P1;SDS_P2;PMS_P1;PMS_P2;Temp;Humidity;BMP_temperature;BMP_pressure;BME280_temperature;BME280_humidity;BME280_pressure;Samples;Min_cycle;Max_cycle;Signal;HPM_P1;HPM_P2
2021/09/22 00:02:12;;;;;;;17.90;13.97;;;8.60;99.90;;;;;;5067152;28;20485;-75
2021/09/22 00:04:38;;;;;;;16.23;13.57;;;8.50;99.90;;;;;;5066973;28;20311;-76
2021/09/22 00:07:04;;;;;;;17.23;13.60;;;8.50;99.90;;;;;;5066125;28;20071;-75
2021/09/22 00:09:29;;;;;;;16.33;13.60;;;8.50;99.90;;;;;;5067130;28;20140;-75
2021/09/22 00:11:55;;;;;;;14.63;11.90;;;8.50;99.90;;;;;;5067439;28;20034;-75
2021/09/22 00:14:21;;;;;;;17.27;12.77;;;8.50;99.90;;;;;;5067201;28;20143;-75
2021/09/22 00:16:46;;;;;;;18.97;12.37;;;8.40;99.90;;;;;;5067275;28;20081;-75
2021/09/22 00:19:12;;;;;;;14.20;12.13;;;8.40;99.90;;;;;;5066813;28;20160;-75
2021/09/22 00:21:38;;;;;;;15.07;11.83;;;8.30;99.90;;;;;;5066598;28;20060;-75
2021/09/22 00:24:04;;;;;;;14.07;11.50;;;8.30;99.90;;;;;;5067066;28;20552;-76
2021/09/22 00:26:30;;;;;;;15.20;11.60;;;8.30;99.90;;;;;;5067255;28;20150;-76
2021/09/22 00:28:55;;;;;;;16.93;12.20;;;8.30;99.90;;;;;;5066569;28;20119;-75
2021/09/22 00:31:21;;;;;;;15.53;12.03;;;8.30;99.90;;;;;;5066924;28;20028;-75
2021/09/22 00:33:47;;;;;;;17.57;12.87;;;8.20;99.90;;;;;;5066784;28;20031;-76
2021/09/22 00:36:12;;;;;;;17.73;12.97;;;8.20;99.90;;;;;;5065400;28;20416;-76
2021/09/22 00:38:38;;;;;;;15.57;12.03;;;8.20;99.90;;;;;;5066727;28;20042;-75
2021/09/22 00:41:04;;;;;;;15.70;12.87;;;8.20;99.90;;;;;;5066450;28;20024;-75
2021/09/22 00:43:29;;;;;;;14.37;12.20;;;8.20;99.90;;;;;;5066923;28;20020;-75
2021/09/22 00:46:00;;;;;;;16.57;13.10;;;8.20;99.90;;;;;;5066483;28;20465;-75
2021/09/22 00:48:26;;;;;;;17.03;13.30;;;8.20;99.90;;;;;;5065985;28;20143;-76
2021/09/22 00:50:52;;;;;;;15.17;13.27;;;8.10;99.90;;;;;;5066425;28;20067;-75
2021/09/22 00:53:18;;;;;;;19.33;13.40;;;8.10;99.90;;;;;;5067099;28;20071;-75
2021/09/22 00:55:44;;;;;;;16.90;13.03;;;8.20;99.90;;;;;;5066058;28;20025;-75
2021/09/22 00:58:10;;;;;;;16.63;13.83;;;8.20;99.90;;;;;;5066173;28;20593;-76
2021/09/22 01:00:38;;;;;;;16.00;12.50;;;8.20;99.90;;;;;;5066468;28;20036;-76
2021/09/22 01:03:04;;;;;;;17.13;13.10;;;8.20;99.90;;;;;;5065623;28;20424;-76
2021/09/22 01:05:30;;;;;;;16.53;13.17;;;8.10;99.90;;;;;;5066629;28;20033;-75
2021/09/22 01:07:56;;;;;;;15.10;12.50;;;8.10;99.90;;;;;;5066122;28;20081;-75
2021/09/22 01:10:22;;;;;;;15.50;12.50;;;8.10;99.90;;;;;;5066179;28;20383;-75
2021/09/22 01:12:48;;;;;;;14.47;11.53;;;8.10;99.90;;;;;;5068943;28;20415;-75
2021/09/22 01:15:29;;;;;;;15.83;12.97;;;8.10;99.90;;;;;;5070518;28;20058;-75
2021/09/22 01:17:55;;;;;;;14.67;12.40;;;8.10;99.90;;;;;;5070285;28;20489;-75
2021/09/22 01:20:21;;;;;;;18.67;11.80;;;8.10;99.90;;;;;;5070386;28;20081;-75
2021/09/22 01:22:46;;;;;;;14.50;11.57;;;8.00;99.90;;;;;;5069476;28;20051;-75
2021/09/22 01:25:13;;;;;;;17.90;12.80;;;8.00;99.90;;;;;;5070591;28;20063;-75
2021/09/22 01:27:50;;;;;;;16.73;13.53;;;8.00;99.90;;;;;;5070621;28;20039;-75
2021/09/22 01:30:16;;;;;;;15.07;12.40;;;8.00;99.90;;;;;;5070182;28;20101;-75
2021/09/22 01:32:52;;;;;;;15.70;13.50;;;8.00;99.90;;;;;;5070492;28;20477;-75
2021/09/22 01:35:18;;;;;;;17.20;13.07;;;8.00;99.90;;;;;;5070346;28;20059;-75
2021/09/22 01:37:44;;;;;;;16.73;12.70;;;8.00;99.90;;;;;;5069708;28;20059;-75
2021/09/22 01:40:10;;;;;;;14.73;12.37;;;7.90;99.90;;;;;;5069133;28;20109;-75
2021/09/22 01:42:35;;;;;;;16.30;12.57;;;7.90;99.90;;;;;;5069813;28;20029;-75
2021/09/22 01:45:12;;;;;;;16.83;13.20;;;7.90;99.90;;;;;;5070283;28;20037;-75
2021/09/22 01:47:38;;;;;;;16.80;12.83;;;7.90;99.90;;;;;;5069564;28;20025;-75
2021/09/22 01:50:08;;;;;;;18.50;14.73;;;7.90;99.90;;;;;;5069308;28;20028;-75
2021/09/22 01:52:34;;;;;;;17.70;13.60;;;7.80;99.90;;;;;;5069011;28;20071;-76
2021/09/22 01:55:00;;;;;;;20.30;14.00;;;7.80;99.90;;;;;;5069040;28;20039;-75
2021/09/22 01:57:26;;;;;;;18.17;13.93;;;7.80;99.90;;;;;;5069445;28;20032;-75
2021/09/22 01:59:52;;;;;;;19.33;14.10;;;7.70;99.90;;;;;;5069306;28;20851;-75
2021/09/22 02:02:18;;;;;;;19.03;13.77;;;7.70;99.90;;;;;;5069675;28;20107;-75
2021/09/22 02:04:44;;;;;;;18.17;13.70;;;7.80;99.90;;;;;;5069938;28;20108;-75
2021/09/22 02:07:10;;;;;;;18.10;12.43;;;7.70;99.90;;;;;;5069913;28;20037;-75
2021/09/22 02:09:35;;;;;;;17.77;13.47;;;7.70;99.90;;;;;;5067929;28;20044;-75
2021/09/22 02:12:01;;;;;;;19.57;12.83;;;7.70;99.90;;;;;;5069321;28;20036;-76
2021/09/22 02:14:27;;;;;;;16.33;12.37;;;7.70;99.90;;;;;;5068436;28;20099;-76
2021/09/22 02:16:53;;;;;;;15.03;11.63;;;7.70;99.90;;;;;;5069495;28;20032;-75
2021/09/22 02:19:19;;;;;;;17.17;12.07;;;7.70;99.90;;;;;;5069766;28;20048;-75
2021/09/22 02:21:45;;;;;;;16.60;13.17;;;7.70;99.90;;;;;;5069988;28;20024;-76
2021/09/22 02:24:11;;;;;;;15.90;12.60;;;7.70;99.90;;;;;;5068828;28;20034;-75
2021/09/22 02:26:36;;;;;;;16.47;12.77;;;7.70;99.90;;;;;;5068299;28;20513;-75
2021/09/22 02:29:02;;;;;;;17.73;12.63;;;7.70;99.90;;;;;;5069046;28;20115;-75
2021/09/22 02:31:28;;;;;;;18.17;14.13;;;7.70;99.90;;;;;;5068614;28;20029;-76
2021/09/22 02:33:53;;;;;;;18.57;13.83;;;7.70;99.90;;;;;;5066838;28;20029;-75
2021/09/22 02:36:19;;;;;;;17.20;12.87;;;7.70;99.90;;;;;;5068654;28;20367;-75
2021/09/22 02:38:45;;;;;;;20.33;13.50;;;7.70;99.90;;;;;;5068697;28;20095;-75
2021/09/22 02:41:10;;;;;;;16.77;11.93;;;7.60;99.90;;;;;;5069066;28;20359;-75
2021/09/22 02:43:36;;;;;;;19.70;12.93;;;7.60;99.90;;;;;;5069156;28;20033;-76
2021/09/22 02:46:02;;;;;;;16.90;12.47;;;7.60;99.90;;;;;;5068858;28;20047;-75
2021/09/22 02:48:27;;;;;;;15.77;12.33;;;7.50;99.90;;;;;;5068572;28;20075;-75
2021/09/22 02:50:53;;;;;;;14.47;11.93;;;7.40;99.90;;;;;;5068461;28;20028;-75
2021/09/22 02:53:19;;;;;;;17.67;11.17;;;7.40;99.90;;;;;;5068143;28;20039;-75
2021/09/22 02:55:45;;;;;;;15.37;11.97;;;7.30;99.90;;;;;;5068489;28;20028;-75
2021/09/22 02:58:11;;;;;;;16.77;12.73;;;7.30;99.90;;;;;;5068712;28;20530;-75
2021/09/22 03:00:37;;;;;;;16.00;12.67;;;7.30;99.90;;;;;;5068678;28;20100;-75
2021/09/22 03:03:03;;;;;;;18.23;12.70;;;7.30;99.90;;;;;;5068894;28;20025;-75
2021/09/22 03:05:28;;;;;;;17.53;12.77;;;7.30;99.90;;;;;;5068951;28;20020;-75
2021/09/22 03:07:54;;;;;;;16.80;13.07;;;7.30;99.90;;;;;;5068269;28;20497;-75
2021/09/22 03:10:20;;;;;;;17.37;11.87;;;7.30;99.90;;;;;;5067776;28;20081;-75
2021/09/22 03:12:48;;;;;;;14.00;11.37;;;7.30;99.90;;;;;;5068093;28;20081;-75
2021/09/22 03:15:14;;;;;;;15.20;12.27;;;7.30;99.90;;;;;;5067464;28;20038;-75
2021/09/22 03:17:40;;;;;;;16.07;12.23;;;7.30;99.90;;;;;;5068141;28;20060;-75
2021/09/22 03:20:06;;;;;;;14.67;12.53;;;7.20;99.90;;;;;;5067557;28;20485;-75
2021/09/22 03:22:32;;;;;;;15.27;12.17;;;7.20;99.90;;;;;;5067979;28;20040;-75
2021/09/22 03:24:58;;;;;;;14.33;11.40;;;7.20;99.90;;;;;;5068792;28;20033;-75
2021/09/22 03:27:23;;;;;;;17.43;12.37;;;7.20;99.90;;;;;;5068618;28;20024;-75
2021/09/22 03:29:49;;;;;;;18.03;11.87;;;7.20;99.90;;;;;;5067725;28;20484;-76
2021/09/22 03:32:15;;;;;;;13.50;10.87;;;7.20;99.90;;;;;;5067640;28;20063;-76
2021/09/22 03:34:40;;;;;;;17.37;12.40;;;7.10;99.90;;;;;;5067176;28;20516;-76
2021/09/22 03:37:06;;;;;;;17.30;12.30;;;7.10;99.90;;;;;;5067762;28;20029;-75
2021/09/22 03:39:32;;;;;;;20.23;11.97;;;7.10;99.90;;;;;;5067910;28;20108;-75
2021/09/22 03:41:57;;;;;;;19.23;12.30;;;7.10;99.90;;;;;;5067949;28;20027;-75
2021/09/22 03:44:25;;;;;;;17.93;11.60;;;7.10;99.90;;;;;;5067072;28;20491;-76
2021/09/22 03:46:51;;;;;;;15.20;12.67;;;7.10;99.90;;;;;;5067097;28;20028;-75
2021/09/22 03:49:17;;;;;;;16.20;12.33;;;7.10;99.90;;;;;;5065576;28;20390;-75
2021/09/22 03:51:42;;;;;;;18.10;11.80;;;7.10;99.90;;;;;;5067501;28;20039;-75
2021/09/22 03:54:08;;;;;;;16.13;12.00;;;7.10;99.90;;;;;;5066423;28;20058;-75
2021/09/22 03:56:33;;;;;;;17.00;12.10;;;7.10;99.90;;;;;;5066892;28;20024;-75
2021/09/22 03:59:00;;;;;;;17.83;12.37;;;7.10;99.90;;;;;;5066699;28;20174;-75
2021/09/22 04:01:27;;;;;;;18.43;12.07;;;7.10;99.90;;;;;;5067196;28;20401;-75
2021/09/22 04:03:52;;;;;;;13.80;10.80;;;7.10;99.90;;;;;;5067072;28;20033;-75
2021/09/22 04:06:18;;;;;;;15.63;11.37;;;7.00;99.90;;;;;;5066821;28;20035;-75
2021/09/22 04:08:43;;;;;;;18.13;12.43;;;7.00;99.90;;;;;;5067707;28;20021;-75
2021/09/22 04:11:09;;;;;;;20.43;12.67;;;7.00;99.90;;;;;;5067461;28;20064;-75
2021/09/22 04:13:35;;;;;;;17.97;13.27;;;6.90;99.90;;;;;;5067206;28;20037;-75
2021/09/22 04:16:00;;;;;;;18.67;13.73;;;7.00;99.90;;;;;;5066892;28;20492;-75
2021/09/22 04:18:26;;;;;;;20.50;14.07;;;6.90;99.90;;;;;;5065927;28;20028;-75
2021/09/22 04:20:51;;;;;;;21.37;13.73;;;6.90;99.90;;;;;;5066291;28;20029;-75
2021/09/22 04:23:17;;;;;;;21.17;15.03;;;6.90;99.90;;;;;;5067077;28;20031;-75
2021/09/22 04:25:43;;;;;;;21.50;14.53;;;6.90;99.90;;;;;;5066869;28;20099;-75
2021/09/22 04:28:08;;;;;;;20.60;14.27;;;6.90;99.90;;;;;;5067224;28;20568;-76
2021/09/22 04:30:34;;;;;;;19.60;13.13;;;6.90;99.90;;;;;;5067396;28;20028;-75
2021/09/22 04:33:00;;;;;;;19.33;12.80;;;6.80;99.90;;;;;;5066238;28;20118;-76
2021/09/22 04:35:25;;;;;;;17.10;11.47;;;6.80;99.90;;;;;;5067113;28;20157;-74
2021/09/22 04:37:53;;;;;;;16.23;12.60;;;6.80;99.90;;;;;;5066937;28;20056;-75
2021/09/22 04:40:18;;;;;;;19.47;13.50;;;6.80;99.90;;;;;;5067523;28;20103;-75
2021/09/22 04:42:44;;;;;;;17.80;11.97;;;6.80;99.90;;;;;;5066923;28;20104;-75
2021/09/22 04:45:10;;;;;;;18.70;12.93;;;6.70;99.90;;;;;;5067647;28;20078;-75
2021/09/22 04:47:37;;;;;;;16.07;12.57;;;6.70;99.90;;;;;;5071066;28;20397;-75
2021/09/22 04:50:05;;;;;;;17.53;12.33;;;6.70;99.90;;;;;;5070840;28;20424;-75
2021/09/22 04:52:31;;;;;;;17.20;12.70;;;6.70;99.90;;;;;;5071356;28;20024;-75
2021/09/22 04:54:57;;;;;;;18.27;13.00;;;6.70;99.90;;;;;;5069944;28;20075;-75
2021/09/22 04:57:22;;;;;;;18.57;12.60;;;6.60;99.90;;;;;;5070283;28;20081;-75
2021/09/22 04:59:48;;;;;;;15.33;12.70;;;6.60;99.90;;;;;;5070200;28;20150;-76
2021/09/22 05:02:13;;;;;;;19.80;13.03;;;6.60;99.90;;;;;;5070047;28;20043;-75
2021/09/22 05:04:39;;;;;;;15.70;12.73;;;6.60;99.90;;;;;;5069985;28;20386;-75
2021/09/22 05:07:05;;;;;;;18.97;12.70;;;6.60;99.90;;;;;;5069948;28;20094;-75
2021/09/22 05:09:32;;;;;;;17.63;12.97;;;6.60;99.90;;;;;;5069759;28;20552;-75
2021/09/22 05:11:57;;;;;;;18.73;14.13;;;6.60;99.90;;;;;;5069289;28;20032;-75
2021/09/22 05:14:23;;;;;;;16.53;12.43;;;6.60;99.90;;;;;;5070461;28;20027;-75
2021/09/22 05:16:48;;;;;;;20.30;13.67;;;6.60;99.90;;;;;;5070199;28;20032;-75
2021/09/22 05:19:14;;;;;;;19.40;14.27;;;6.60;99.90;;;;;;5070430;28;20028;-75
2021/09/22 05:21:39;;;;;;;25.23;18.17;;;6.60;99.90;;;;;;5070110;28;20139;-76
2021/09/22 05:24:05;;;;;;;21.67;17.13;;;6.60;99.90;;;;;;5069888;28;20048;-75
2021/09/22 05:26:31;;;;;;;18.43;14.63;;;6.60;99.90;;;;;;5069945;28;20112;-75
2021/09/22 05:28:56;;;;;;;20.17;15.63;;;6.70;99.90;;;;;;5069599;28;20028;-76
2021/09/22 05:31:22;;;;;;;17.60;13.10;;;6.70;99.90;;;;;;5069950;28;20017;-75
2021/09/22 05:33:47;;;;;;;16.03;12.77;;;6.70;99.90;;;;;;5070484;28;20021;-75
2021/09/22 05:36:13;;;;;;;19.07;13.87;;;6.80;99.90;;;;;;5069096;28;20405;-75
2021/09/22 05:38:38;;;;;;;18.63;13.87;;;6.80;99.90;;;;;;5068816;28;20034;-75
2021/09/22 05:41:04;;;;;;;19.97;13.90;;;6.80;99.90;;;;;;5067994;28;20060;-75
2021/09/22 05:43:29;;;;;;;19.13;14.50;;;6.80;99.90;;;;;;5070332;28;20036;-75
2021/09/22 05:45:55;;;;;;;17.27;12.50;;;6.90;99.90;;;;;;5069628;28;20039;-75
2021/09/22 05:48:20;;;;;;;19.30;13.20;;;6.90;99.90;;;;;;5069543;28;20343;-76
2021/09/22 05:50:46;;;;;;;16.33;12.73;;;6.90;99.90;;;;;;5069587;28;20539;-75
2021/09/22 05:53:12;;;;;;;15.67;12.03;;;6.90;99.90;;;;;;5069570;28;20031;-75
2021/09/22 05:55:38;;;;;;;15.97;13.43;;;7.00;99.90;;;;;;5068708;28;20035;-75
2021/09/22 05:58:03;;;;;;;17.43;13.27;;;7.10;99.90;;;;;;5068859;28;20467;-75
2021/09/22 06:00:29;;;;;;;17.47;13.53;;;7.10;99.90;;;;;;5069118;28;20021;-75
2021/09/22 06:02:55;;;;;;;18.53;13.33;;;7.20;99.90;;;;;;5067995;28;20453;-75
2021/09/22 06:05:20;;;;;;;16.70;13.33;;;7.20;99.90;;;;;;5069199;28;20043;-75
2021/09/22 06:07:46;;;;;;;18.13;14.10;;;7.20;99.90;;;;;;5067664;28;20033;-75
2021/09/22 06:10:11;;;;;;;19.70;13.87;;;7.30;99.90;;;;;;5067873;28;20082;-76
2021/09/22 06:12:37;;;;;;;19.87;13.90;;;7.40;99.90;;;;;;5068618;28;20032;-75
2021/09/22 06:15:03;;;;;;;18.77;14.13;;;7.40;99.90;;;;;;5068819;28;20032;-75
2021/09/22 06:17:28;;;;;;;20.43;14.57;;;7.60;99.90;;;;;;5068631;28;20032;-75
2021/09/22 06:19:54;;;;;;;27.03;15.00;;;7.70;99.90;;;;;;5069479;28;20030;-76
2021/09/22 06:22:24;;;;;;;20.07;15.00;;;7.80;99.90;;;;;;5068483;28;20078;-75
2021/09/22 06:24:51;;;;;;;22.00;15.03;;;7.80;99.90;;;;;;5068823;28;20107;-75
2021/09/22 06:27:17;;;;;;;18.10;14.17;;;7.90;99.90;;;;;;5069528;28;20138;-75
2021/09/22 06:29:43;;;;;;;20.50;15.13;;;7.90;99.90;;;;;;5069007;28;20107;-76
2021/09/22 06:32:08;;;;;;;19.60;13.83;;;8.00;99.90;;;;;;5068537;28;20111;-75
2021/09/22 06:34:34;;;;;;;25.27;15.37;;;8.00;99.90;;;;;;5068431;28;20032;-75
2021/09/22 06:36:59;;;;;;;22.73;15.53;;;8.10;99.90;;;;;;5068944;28;20036;-75
2021/09/22 06:39:25;;;;;;;21.93;15.00;;;8.20;99.90;;;;;;5068894;28;20025;-75
2021/09/22 06:41:50;;;;;;;17.77;13.87;;;8.20;99.90;;;;;;5068684;28;20032;-75
2021/09/22 06:44:16;;;;;;;20.80;14.27;;;8.20;99.90;;;;;;5068515;28;20028;-75
2021/09/22 06:46:42;;;;;;;17.60;13.77;;;8.30;99.90;;;;;;5068574;28;20549;-75
2021/09/22 06:49:07;;;;;;;20.77;13.83;;;8.30;99.90;;;;;;5066521;28;20457;-75
2021/09/22 06:51:33;;;;;;;19.37;14.57;;;8.40;99.90;;;;;;5067976;28;20390;-75
2021/09/22 06:53:58;;;;;;;21.83;14.43;;;8.40;99.90;;;;;;5067790;28;20493;-75
2021/09/22 06:56:25;;;;;;;27.97;14.57;;;8.50;99.90;;;;;;5067863;28;20031;-75
2021/09/22 06:58:51;;;;;;;20.10;15.07;;;8.50;99.90;;;;;;5067897;28;20441;-76
2021/09/22 07:01:18;;;;;;;18.83;14.50;;;8.60;99.90;;;;;;5068642;28;20119;-76
2021/09/22 07:03:43;;;;;;;19.97;14.60;;;8.60;99.90;;;;;;5067210;28;20028;-76
2021/09/22 07:06:11;;;;;;;21.00;14.63;;;8.80;99.90;;;;;;5067835;28;20028;-75
2021/09/22 07:08:37;;;;;;;24.60;15.00;;;8.80;99.90;;;;;;5068014;28;20541;-75
2021/09/22 07:11:03;;;;;;;20.77;15.90;;;8.90;99.90;;;;;;5067905;28;20096;-75
2021/09/22 07:13:29;;;;;;;18.57;15.30;;;9.00;99.90;;;;;;5067627;28;20115;-76
2021/09/22 07:15:56;;;;;;;19.83;14.90;;;9.10;99.90;;;;;;5067787;28;20103;-76
2021/09/22 07:18:22;;;;;;;20.60;14.93;;;9.10;99.90;;;;;;5067405;28;20024;-75
2021/09/22 07:20:48;;;;;;;22.63;15.40;;;9.30;99.90;;;;;;5068272;28;20367;-75
2021/09/22 07:23:14;;;;;;;19.20;15.90;;;9.30;99.90;;;;;;5067078;28;20382;-75
2021/09/22 07:25:40;;;;;;;17.60;14.50;;;9.40;99.90;;;;;;5067574;28;20047;-75
2021/09/22 07:28:06;;;;;;;18.00;15.77;;;9.50;99.90;;;;;;5067708;28;20037;-76
2021/09/22 07:30:31;;;;;;;18.73;15.80;;;9.60;99.90;;;;;;5067300;28;20067;-76
2021/09/22 07:32:59;;;;;;;20.77;15.77;;;9.70;99.90;;;;;;5067707;28;20021;-76
2021/09/22 07:35:25;;;;;;;20.37;16.07;;;9.70;99.90;;;;;;5066977;28;20020;-75
2021/09/22 07:37:51;;;;;;;19.63;15.27;;;9.90;99.90;;;;;;5067796;28;20050;-75
2021/09/22 07:40:17;;;;;;;21.47;16.80;;;10.00;99.90;;;;;;5067211;28;20025;-75
2021/09/22 07:42:43;;;;;;;22.65;16.58;;;10.00;99.90;;;;;;5067312;28;20433;-76
2021/09/22 07:45:10;;;;;;;20.67;15.67;;;10.10;99.90;;;;;;5067776;28;20032;-75
2021/09/22 07:47:35;;;;;;;18.55;15.57;;;10.20;99.90;;;;;;5067425;28;20535;-76
2021/09/22 07:50:02;;;;;;;18.93;15.00;;;10.30;99.90;;;;;;5064822;28;20032;-76
2021/09/22 07:52:27;;;;;;;19.40;16.05;;;10.40;99.90;;;;;;5065507;28;20477;-76
2021/09/22 07:54:53;;;;;;;20.33;15.20;;;10.40;99.90;;;;;;5066683;28;20063;-76
2021/09/22 07:57:19;;;;;;;21.60;15.85;;;10.50;99.90;;;;;;5066945;28;20020;-76
2021/09/22 07:59:44;;;;;;;17.17;14.63;;;10.60;99.90;;;;;;5067246;28;20048;-75
2021/09/22 08:02:10;;;;;;;17.67;14.38;;;10.70;99.90;;;;;;5067233;28;20074;-76
2021/09/22 08:04:35;;;;;;;19.35;14.13;;;10.80;99.90;;;;;;5066819;28;20029;-75
2021/09/22 08:07:02;;;;;;;17.80;14.95;;;10.90;99.90;;;;;;5066525;28;20663;-76
2021/09/22 08:09:28;;;;;;;19.02;14.48;;;10.90;99.90;;;;;;5066577;28;20396;-76
2021/09/22 08:11:54;;;;;;;15.10;12.50;;;11.10;99.90;;;;;;5067556;28;20052;-76
2021/09/22 08:14:20;;;;;;;25.80;14.05;;;11.20;99.90;;;;;;5066494;28;20068;-76
2021/09/22 08:16:46;;;;;;;18.30;13.73;;;11.40;99.90;;;;;;5066974;28;20093;-76
2021/09/22 08:19:14;;;;;;;18.52;12.65;;;11.50;99.90;;;;;;5066997;28;20036;-76
2021/09/22 08:21:40;;;;;;;16.48;13.07;;;11.60;99.90;;;;;;5071605;28;20029;-76
2021/09/22 08:24:06;;;;;;;14.20;12.07;;;11.70;99.90;;;;;;5072966;28;20512;-75
2021/09/22 08:26:31;;;;;;;13.65;11.48;;;11.80;99.90;;;;;;5073408;28;20028;-75
2021/09/22 08:28:57;;;;;;;14.63;11.50;;;11.90;99.90;;;;;;5073561;28;20016;-76
2021/09/22 08:31:23;;;;;;;14.13;11.25;;;12.00;99.90;;;;;;5073807;28;20107;-76
2021/09/22 08:33:49;;;;;;;14.48;11.40;;;12.20;99.90;;;;;;5073319;28;20029;-76
2021/09/22 08:36:15;;;;;;;13.23;10.68;;;12.30;99.90;;;;;;5072968;28;20025;-76
2021/09/22 08:38:40;;;;;;;15.00;11.45;;;12.50;99.90;;;;;;5073610;28;20078;-75
2021/09/22 08:41:06;;;;;;;11.73;10.40;;;12.60;99.90;;;;;;5073355;28;20029;-76
2021/09/22 08:43:32;;;;;;;15.63;11.20;;;12.80;99.90;;;;;;5073210;28;20024;-75
2021/09/22 08:45:58;;;;;;;14.25;10.40;;;12.90;99.90;;;;;;5073511;28;20094;-76
2021/09/22 08:48:24;;;;;;;15.43;11.25;;;13.00;99.90;;;;;;5073552;28;20021;-76
2021/09/22 08:50:51;;;;;;;13.68;11.27;;;13.10;99.90;;;;;;5073473;28;20028;-76
2021/09/22 08:53:17;;;;;;;10.32;9.10;;;13.20;99.90;;;;;;5073358;28;20035;-76
2021/09/22 08:55:42;;;;;;;11.32;9.00;;;13.30;99.90;;;;;;5073064;28;20024;-76
2021/09/22 08:58:08;;;;;;;14.43;9.80;;;13.40;99.90;;;;;;5073312;28;20059;-76
2021/09/22 09:00:34;;;;;;;11.90;8.55;;;13.50;99.90;;;;;;5073338;28;20065;-76
2021/09/22 09:03:01;;;;;;;10.70;9.60;;;13.60;99.90;;;;;;5073178;28;20128;-76
2021/09/22 09:05:26;;;;;;;14.13;10.13;;;13.70;99.90;;;;;;5072902;28;20044;-76
2021/09/22 09:07:58;;;;;;;13.05;10.13;;;13.90;99.90;;;;;;5072136;28;20048;-76
2021/09/22 09:10:26;;;;;;;12.52;9.90;;;14.10;99.90;;;;;;5073067;28;20401;-76
2021/09/22 09:13:07;;;;;;;11.18;9.73;;;14.20;99.90;;;;;;5073246;28;20028;-76
2021/09/22 09:15:44;;;;;;;10.23;8.25;;;14.40;99.90;;;;;;5073234;28;20051;-76
2021/09/22 09:18:18;;;;;;;10.20;7.20;;;14.50;99.90;;;;;;5072623;28;20033;-76
2021/09/22 09:21:01;;;;;;;8.63;7.13;;;14.60;99.90;;;;;;5073955;28;20110;-76
2021/09/22 09:23:27;;;;;;;7.18;6.28;;;14.80;99.90;;;;;;5072903;28;20262;-76
2021/09/22 09:25:57;;;;;;;8.43;6.53;;;14.90;99.90;;;;;;5073293;28;20040;-76
2021/09/22 09:28:28;;;;;;;9.55;7.55;;;15.00;99.90;;;;;;5072525;28;20108;-76
2021/09/22 09:31:00;;;;;;;7.72;6.70;;;15.00;99.90;;;;;;5070960;28;20043;-76
2021/09/22 09:33:58;;;;;;;9.90;7.45;;;15.20;99.90;;;;;;5069034;28;20082;-76
2021/09/22 09:36:27;;;;;;;11.35;7.38;;;15.40;99.90;;;;;;5056855;28;20155;-76
2021/09/22 09:39:13;;;;;;;12.93;7.68;;;15.50;99.90;;;;;;5070199;28;20074;-76
2021/09/22 09:41:52;;;;;;;7.93;6.40;;;15.60;99.90;;;;;;5069297;28;20025;-76
2021/09/22 09:44:24;;;;;;;5.97;4.90;;;15.60;99.90;;;;;;5069366;28;20099;-76
2021/09/22 09:46:51;;;;;;;9.90;5.03;;;15.70;99.90;;;;;;5069209;28;20035;-76
2021/09/22 09:49:20;;;;;;;8.27;5.18;;;15.90;99.90;;;;;;5069267;28;20032;-76
2021/09/22 09:51:53;;;;;;;6.18;5.03;;;15.80;99.90;;;;;;5069532;28;20109;-76
2021/09/22 09:54:24;;;;;;;8.68;5.88;;;15.90;99.90;;;;;;5067811;28;20151;-76
2021/09/22 09:56:52;;;;;;;5.97;4.72;;;16.00;99.90;;;;;;5068920;28;20025;-76
2021/09/22 09:59:19;;;;;;;4.60;3.88;;;16.10;99.90;;;;;;5069435;28;20587;-76
2021/09/22 10:01:48;;;;;;;5.85;4.15;;;16.10;99.90;;;;;;5069224;28;20051;-76
2021/09/22 10:04:16;;;;;;;6.38;4.68;;;16.40;99.90;;;;;;5069042;28;20489;-76
2021/09/22 10:06:43;;;;;;;9.63;4.65;;;16.50;99.90;;;;;;5069231;28;20024;-76
2021/09/22 10:09:09;;;;;;;5.13;4.18;;;16.40;99.90;;;;;;5068836;28;20019;-76
2021/09/22 10:11:37;;;;;;;7.18;5.07;;;16.60;99.90;;;;;;5069378;28;20090;-76
2021/09/22 10:14:05;;;;;;;7.13;4.35;;;16.70;99.90;;;;;;5068582;28;20056;-76
2021/09/22 10:16:33;;;;;;;8.00;4.28;;;16.70;99.90;;;;;;5069388;28;20021;-76
2021/09/22 10:18:59;;;;;;;8.07;5.00;;;16.80;99.90;;;;;;5068260;28;20025;-76
2021/09/22 10:21:26;;;;;;;7.63;5.03;;;16.80;99.90;;;;;;5068489;28;20633;-76
2021/09/22 10:23:57;;;;;;;8.18;4.57;;;16.90;99.90;;;;;;5068148;28;20066;-76
2021/09/22 10:26:24;;;;;;;6.47;5.10;;;16.90;99.90;;;;;;5068397;28;20028;-76
2021/09/22 10:28:52;;;;;;;7.70;5.00;;;16.90;99.90;;;;;;5067029;28;20024;-76
2021/09/22 10:31:34;;;;;;;8.20;5.15;;;16.90;99.90;;;;;;5068629;28;20047;-76
2021/09/22 10:34:00;;;;;;;7.53;5.30;;;17.10;99.90;;;;;;5068624;28;20031;-76
2021/09/22 10:36:40;;;;;;;6.90;5.57;;;17.10;99.90;;;;;;5068404;28;20502;-76
2021/09/22 10:39:08;;;;;;;6.57;5.88;;;17.10;99.90;;;;;;5069072;28;20035;-76
2021/09/22 10:41:44;;;;;;;5.97;5.03;;;17.20;99.90;;;;;;5068360;28;20338;-76
2021/09/22 10:44:33;;;;;;;9.60;5.20;;;17.30;99.90;;;;;;5068200;28;20024;-76
2021/09/22 10:47:28;;;;;;;7.95;5.45;;;17.50;99.90;;;;;;5067248;28;20024;-76
2021/09/22 10:49:55;;;;;;;7.00;4.97;;;17.50;99.90;;;;;;5068506;28;20073;-76
2021/09/22 10:52:31;;;;;;;9.02;5.68;;;17.50;99.90;;;;;;5068603;28;20091;-76
2021/09/22 10:55:10;;;;;;;7.20;5.90;;;17.30;99.90;;;;;;5068023;28;20565;-76
2021/09/22 10:57:37;;;;;;;6.50;5.50;;;17.10;99.90;;;;;;5068765;28;20123;-76
2021/09/22 11:00:21;;;;;;;7.32;6.28;;;17.20;99.90;;;;;;5068274;28;20068;-76
2021/09/22 11:02:53;;;;;;;7.13;5.50;;;17.20;99.90;;;;;;5068708;28;20032;-76
2021/09/22 11:05:28;;;;;;;9.02;5.30;;;17.50;99.90;;;;;;5067861;28;20464;-76
2021/09/22 11:07:58;;;;;;;14.55;6.20;;;17.90;99.90;;;;;;5068674;28;20470;-76
2021/09/22 11:10:30;;;;;;;8.15;5.68;;;18.00;99.90;;;;;;5067999;28;20028;-76
2021/09/22 11:13:19;;;;;;;6.45;5.63;;;17.90;99.90;;;;;;5067742;28;20388;-76
2021/09/22 11:15:46;;;;;;;9.07;6.75;;;17.80;99.90;;;;;;5067364;28;20473;-76
2021/09/22 11:18:12;;;;;;;6.88;5.57;;;17.60;99.90;;;;;;5068083;28;20056;-76
2021/09/22 11:20:37;;;;;;;6.72;5.18;;;17.30;99.90;;;;;;5068472;28;20115;-76
2021/09/22 11:23:08;;;;;;;8.00;5.30;;;17.00;99.90;;;;;;5067777;28;20056;-76
2021/09/22 11:25:33;;;;;;;8.23;5.90;;;17.00;99.90;;;;;;5067436;28;20423;-76
2021/09/22 11:28:06;;;;;;;9.35;5.80;;;16.90;99.90;;;;;;5067953;28;20082;-76
2021/09/22 11:30:32;;;;;;;4.60;3.60;;;16.80;99.90;;;;;;5067012;28;20044;-76
2021/09/22 11:32:57;;;;;;;5.88;3.80;;;17.00;99.90;;;;;;5067766;28;20082;-76
2021/09/22 11:35:28;;;;;;;7.47;6.05;;;17.00;99.90;;;;;;5067999;28;20085;-76
2021/09/22 11:37:56;;;;;;;6.50;4.47;;;17.10;99.90;;;;;;5067853;28;20024;-76
2021/09/22 11:40:33;;;;;;;5.13;4.05;;;17.30;99.90;;;;;;5067775;28;20029;-76
2021/09/22 11:43:00;;;;;;;6.00;3.70;;;17.40;99.90;;;;;;5067255;28;20498;-76
2021/09/22 11:45:28;;;;;;;5.18;4.05;;;17.40;99.90;;;;;;5068081;28;20771;-76
2021/09/22 11:47:54;;;;;;;5.32;4.47;;;17.40;99.90;;;;;;5067500;28;20127;-76
2021/09/22 11:50:31;;;;;;;6.63;3.42;;;17.30;99.90;;;;;;5067194;28;20103;-76
2021/09/22 11:52:58;;;;;;;5.05;3.85;;;17.20;99.90;;;;;;5066097;28;20036;-76
2021/09/22 11:55:24;;;;;;;6.00;4.10;;;16.90;99.90;;;;;;5065903;28;20056;-76
2021/09/22 11:57:50;;;;;;;6.30;4.43;;;16.70;99.90;;;;;;5067566;28;20028;-76
2021/09/22 12:00:22;;;;;;;9.82;4.50;;;16.50;99.90;;;;;;5067001;28;20036;-76
2021/09/22 12:02:48;;;;;;;6.45;4.10;;;16.40;99.90;;;;;;5066869;28;20028;-76
2021/09/22 12:05:19;;;;;;;5.65;3.40;;;16.40;99.90;;;;;;5067528;28;20043;-76
2021/09/22 12:07:47;;;;;;;4.03;3.15;;;16.30;99.90;;;;;;5065548;28;20032;-76
2021/09/22 12:10:13;;;;;;;6.95;3.90;;;16.10;99.90;;;;;;5067845;28;20025;-76
2021/09/22 12:12:40;;;;;;;5.72;4.50;;;16.10;99.90;;;;;;5067736;28;20122;-76
2021/09/22 12:15:08;;;;;;;5.40;3.75;;;16.00;99.90;;;;;;5067381;28;20036;-76
2021/09/22 12:17:40;;;;;;;5.97;3.83;;;16.00;99.90;;;;;;5066932;28;20024;-76
2021/09/22 12:20:10;;;;;;;6.07;4.25;;;16.10;99.90;;;;;;5066897;28;20024;-76
2021/09/22 12:22:38;;;;;;;8.00;4.47;;;16.10;99.90;;;;;;5066726;28;20047;-76
2021/09/22 12:25:07;;;;;;;8.07;4.18;;;16.20;99.90;;;;;;5067443;28;20508;-76
2021/09/22 12:27:33;;;;;;;6.57;4.13;;;16.20;99.90;;;;;;5066780;28;20044;-76
2021/09/22 12:30:10;;;;;;;5.72;4.63;;;16.20;99.90;;;;;;5067183;28;20051;-76
2021/09/22 12:32:54;;;;;;;7.75;4.53;;;16.30;99.90;;;;;;5067155;28;20099;-76
2021/09/22 12:35:22;;;;;;;6.57;4.83;;;16.20;99.90;;;;;;5067339;28;20024;-76
2021/09/22 12:37:56;;;;;;;8.20;4.68;;;16.40;99.90;;;;;;5067116;28;20255;-76
2021/09/22 12:40:39;;;;;;;8.73;4.60;;;16.50;99.90;;;;;;5066909;28;20027;-76